sensor_id;sensor_type;location;lat;lon;timestamp;temperature;humidity
1594;DHT22;790;47.000;16.084;2023-03-23T00:01:15;7.90;99.90
1594;DHT22;790;47.000;16.084;2023-03-23T00:03:46;7.90;99.90
1594;DHT22;790;47.000;16.084;2023-03-23T00:06:14;7.90;99.90
1594;DHT22;790;47.000;16.084;2023-03-23T00:08:50;7.80;99.90
1594;DHT22;790;47.000;16.084;2023-03-23T00:11:23;7.80;99.90
1594;DHT22;790;47.000;16.084;2023-03-23T00:13:52;7.80;99.90
1594;DHT22;790;47.000;16.084;2023-03-23T00:16:21;7.80;99.90
1594;DHT22;790;47.000;16.084;2023-03-23T00:18:58;7.80;99.90
1594;DHT22;790;47.000;16.084;2023-03-23T00:21:27;7.80;99.90
1594;DHT22;790;47.000;16.084;2023-03-23T00:24:01;7.80;99.90
1594;DHT22;790;47.000;16.084;2023-03-23T00:26:30;7.80;99.90
1594;DHT22;790;47.000;16.084;2023-03-23T00:29:00;7.70;99.90
1594;DHT22;790;47.000;16.084;2023-03-23T00:31:28;7.70;99.90
1594;DHT22;790;47.000;16.084;2023-03-23T00:33:59;7.70;99.90
1594;DHT22;790;47.000;16.084;2023-03-23T00:36:30;7.60;99.90
1594;DHT22;790;47.000;16.084;2023-03-23T00:39:01;7.50;99.90
1594;DHT22;790;47.000;16.084;2023-03-23T00:41:29;7.40;99.90
1594;DHT22;790;47.000;16.084;2023-03-23T00:43:57;7.40;99.90
1594;DHT22;790;47.000;16.084;2023-03-23T00:46:26;7.40;99.90
1594;DHT22;790;47.000;16.084;2023-03-23T00:48:53;7.40;99.90
1594;DHT22;790;47.000;16.084;2023-03-23T00:51:23;7.30;99.90
1594;DHT22;790;47.000;16.084;2023-03-23T00:53:50;7.30;99.90
1594;DHT22;790;47.000;16.084;2023-03-23T00:56:19;7.30;99.90
1594;DHT22;790;47.000;16.084;2023-03-23T00:58:46;7.40;99.90
1594;DHT22;790;47.000;16.084;2023-03-23T01:01:13;7.40;99.90
1594;DHT22;790;47.000;16.084;2023-03-23T01:03:40;7.40;99.90
1594;DHT22;790;47.000;16.084;2023-03-23T01:06:09;7.30;99.90
1594;DHT22;790;47.000;16.084;2023-03-23T01:08:39;7.30;99.90
1594;DHT22;790;47.000;16.084;2023-03-23T01:11:13;7.20;99.90
1594;DHT22;790;47.000;16.084;2023-03-23T01:13:42;7.20;99.90
1594;DHT22;790;47.000;16.084;2023-03-23T01:16:10;7.20;99.90
1594;DHT22;790;47.000;16.084;2023-03-23T01:18:39;7.10;99.90
1594;DHT22;790;47.000;16.084;2023-03-23T01:21:10;6.90;99.90
1594;DHT22;790;47.000;16.084;2023-03-23T01:23:38;6.80;99.90
1594;DHT22;790;47.000;16.084;2023-03-23T01:26:06;6.90;99.90
1594;DHT22;790;47.000;16.084;2023-03-23T01:28:34;6.90;99.90
1594;DHT22;790;47.000;16.084;2023-03-23T01:31:04;7.10;99.90
1594;DHT22;790;47.000;16.084;2023-03-23T01:33:32;7.10;99.90
1594;DHT22;790;47.000;16.084;2023-03-23T01:36:03;7.10;99.90
1594;DHT22;790;47.000;16.084;2023-03-23T01:38:30;7.20;99.90
1594;DHT22;790;47.000;16.084;2023-03-23T01:40:58;7.20;99.90
1594;DHT22;790;47.000;16.084;2023-03-23T01:43:25;7.20;99.90
1594;DHT22;790;47.000;16.084;2023-03-23T01:45:53;7.10;99.90
1594;DHT22;790;47.000;16.084;2023-03-23T01:48:25;7.10;99.90
1594;DHT22;790;47.000;16.084;2023-03-23T01:50:58;7.00;99.90
1594;DHT22;790;47.000;16.084;2023-03-23T01:53:30;7.00;99.90
1594;DHT22;790;47.000;16.084;2023-03-23T01:56:00;6.90;99.90
1594;DHT22;790;47.000;16.084;2023-03-23T01:58:31;6.90;99.90
1594;DHT22;790;47.000;16.084;2023-03-23T02:01:03;6.90;99.90
1594;DHT22;790;47.000;16.084;2023-03-23T02:03:32;6.80;99.90
1594;DHT22;790;47.000;16.084;2023-03-23T02:06:01;6.70;99.90
1594;DHT22;790;47.000;16.084;2023-03-23T02:08:31;6.70;99.90
1594;DHT22;790;47.000;16.084;2023-03-23T02:10:59;6.70;99.90
1594;DHT22;790;47.000;16.084;2023-03-23T02:13:27;6.70;99.90
1594;DHT22;790;47.000;16.084;2023-03-23T02:16:01;6.70;99.90
1594;DHT22;790;47.000;16.084;2023-03-23T02:18:40;6.80;99.90
1594;DHT22;790;47.000;16.084;2023-03-23T02:33:43;6.70;99.90
1594;DHT22;790;47.000;16.084;2023-03-23T02:36:20;6.60;99.90
1594;DHT22;790;47.000;16.084;2023-03-23T02:38:58;6.50;99.90
1594;DHT22;790;47.000;16.084;2023-03-23T02:41:34;6.40;99.90
1594;DHT22;790;47.000;16.084;2023-03-23T02:44:03;6.50;99.90
1594;DHT22;790;47.000;16.084;2023-03-23T02:46:31;6.50;99.90
1594;DHT22;790;47.000;16.084;2023-03-23T02:49:02;6.60;99.90
1594;DHT22;790;47.000;16.084;2023-03-23T02:51:31;6.50;99.90
1594;DHT22;790;47.000;16.084;2023-03-23T02:53:59;6.50;99.90
1594;DHT22;790;47.000;16.084;2023-03-23T02:56:27;6.40;99.90
1594;DHT22;790;47.000;16.084;2023-03-23T02:58:55;6.40;99.90
1594;DHT22;790;47.000;16.084;2023-03-23T03:01:48;6.40;99.90
1594;DHT22;790;47.000;16.084;2023-03-23T03:04:19;6.40;99.90
1594;DHT22;790;47.000;16.084;2023-03-23T03:09:45;6.30;99.90
1594;DHT22;790;47.000;16.084;2023-03-23T03:12:22;6.20;99.90
1594;DHT22;790;47.000;16.084;2023-03-23T03:14:56;6.20;99.90
1594;DHT22;790;47.000;16.084;2023-03-23T03:17:26;6.20;99.90
1594;DHT22;790;47.000;16.084;2023-03-23T03:19:58;6.20;99.90
1594;DHT22;790;47.000;16.084;2023-03-23T03:22:28;6.10;99.90
1594;DHT22;790;47.000;16.084;2023-03-23T03:24:57;6.10;99.90
1594;DHT22;790;47.000;16.084;2023-03-23T03:27:25;6.20;99.90
1594;DHT22;790;47.000;16.084;2023-03-23T03:29:55;6.20;99.90
1594;DHT22;790;47.000;16.084;2023-03-23T03:32:30;6.10;99.90
1594;DHT22;790;47.000;16.084;2023-03-23T03:35:01;6.10;99.90
1594;DHT22;790;47.000;16.084;2023-03-23T03:37:33;6.00;99.90
1594;DHT22;790;47.000;16.084;2023-03-23T03:40:05;6.00;99.90
1594;DHT22;790;47.000;16.084;2023-03-23T03:42:37;6.00;99.90
1594;DHT22;790;47.000;16.084;2023-03-23T03:45:07;6.00;99.90
1594;DHT22;790;47.000;16.084;2023-03-23T03:47:35;6.00;99.90
1594;DHT22;790;47.000;16.084;2023-03-23T03:50:05;6.00;99.90
1594;DHT22;790;47.000;16.084;2023-03-23T03:52:32;6.00;99.90
1594;DHT22;790;47.000;16.084;2023-03-23T03:55:00;5.90;99.90
1594;DHT22;790;47.000;16.084;2023-03-23T03:57:29;5.90;99.90
1594;DHT22;790;47.000;16.084;2023-03-23T03:59:56;5.90;99.90
1594;DHT22;790;47.000;16.084;2023-03-23T04:02:25;5.90;99.90
1594;DHT22;790;47.000;16.084;2023-03-23T04:04:53;5.80;99.90
1594;DHT22;790;47.000;16.084;2023-03-23T04:07:21;5.70;99.90
1594;DHT22;790;47.000;16.084;2023-03-23T04:09:55;5.70;99.90
1594;DHT22;790;47.000;16.084;2023-03-23T04:12:24;5.70;99.90
1594;DHT22;790;47.000;16.084;2023-03-23T04:14:52;5.70;99.90
1594;DHT22;790;47.000;16.084;2023-03-23T04:17:19;5.80;99.90
1594;DHT22;790;47.000;16.084;2023-03-23T04:19:48;5.80;99.90
1594;DHT22;790;47.000;16.084;2023-03-23T04:22:15;5.80;99.90
1594;DHT22;790;47.000;16.084;2023-03-23T04:24:56;5.80;99.90
1594;DHT22;790;47.000;16.084;2023-03-23T04:27:26;5.80;99.90
1594;DHT22;790;47.000;16.084;2023-03-23T04:29:55;5.70;99.90
1594;DHT22;790;47.000;16.084;2023-03-23T04:32:24;5.80;99.90
1594;DHT22;790;47.000;16.084;2023-03-23T04:34:55;5.80;99.90
1594;DHT22;790;47.000;16.084;2023-03-23T04:37:25;5.70;99.90
1594;DHT22;790;47.000;16.084;2023-03-23T04:40:09;5.70;99.90
1594;DHT22;790;47.000;16.084;2023-03-23T04:42:40;5.70;99.90
1594;DHT22;790;47.000;16.084;2023-03-23T04:45:12;5.60;99.90
1594;DHT22;790;47.000;16.084;2023-03-23T04:47:41;5.60;99.90
1594;DHT22;790;47.000;16.084;2023-03-23T04:50:15;5.60;99.90
1594;DHT22;790;47.000;16.084;2023-03-23T04:52:43;5.70;99.90
1594;DHT22;790;47.000;16.084;2023-03-23T04:55:14;5.60;99.90
1594;DHT22;790;47.000;16.084;2023-03-23T04:57:42;5.60;99.90
1594;DHT22;790;47.000;16.084;2023-03-23T05:00:10;5.60;99.90
1594;DHT22;790;47.000;16.084;2023-03-23T05:02:40;5.70;99.90
1594;DHT22;790;47.000;16.084;2023-03-23T05:05:09;5.70;99.90
1594;DHT22;790;47.000;16.084;2023-03-23T05:07:37;5.50;99.90
1594;DHT22;790;47.000;16.084;2023-03-23T05:10:07;5.40;99.90
1594;DHT22;790;47.000;16.084;2023-03-23T05:12:36;5.40;99.90
1594;DHT22;790;47.000;16.084;2023-03-23T05:15:04;5.50;99.90
1594;DHT22;790;47.000;16.084;2023-03-23T05:17:32;5.60;99.90
1594;DHT22;790;47.000;16.084;2023-03-23T05:20:00;5.60;99.90
1594;DHT22;790;47.000;16.084;2023-03-23T05:22:31;5.50;99.90
1594;DHT22;790;47.000;16.084;2023-03-23T05:24:59;5.60;99.90
1594;DHT22;790;47.000;16.084;2023-03-23T05:30:53;5.50;99.90
1594;DHT22;790;47.000;16.084;2023-03-23T05:33:21;5.70;99.90
1594;DHT22;790;47.000;16.084;2023-03-23T05:35:48;5.70;99.90
1594;DHT22;790;47.000;16.084;2023-03-23T05:38:16;5.80;99.90
1594;DHT22;790;47.000;16.084;2023-03-23T05:40:44;5.80;99.90
1594;DHT22;790;47.000;16.084;2023-03-23T05:43:11;5.90;99.90
1594;DHT22;790;47.000;16.084;2023-03-23T05:45:38;5.90;99.90
1594;DHT22;790;47.000;16.084;2023-03-23T05:48:07;6.00;99.90
1594;DHT22;790;47.000;16.084;2023-03-23T05:50:34;6.10;99.90
1594;DHT22;790;47.000;16.084;2023-03-23T05:53:01;6.10;99.90
1594;DHT22;790;47.000;16.084;2023-03-23T05:55:29;6.10;99.90
1594;DHT22;790;47.000;16.084;2023-03-23T05:57:58;6.10;99.90
1594;DHT22;790;47.000;16.084;2023-03-23T06:00:25;6.20;99.90
1594;DHT22;790;47.000;16.084;2023-03-23T06:02:55;6.30;99.90
1594;DHT22;790;47.000;16.084;2023-03-23T06:05:24;6.40;99.90
1594;DHT22;790;47.000;16.084;2023-03-23T06:07:51;6.50;99.90
1594;DHT22;790;47.000;16.084;2023-03-23T06:10:22;6.60;99.90
1594;DHT22;790;47.000;16.084;2023-03-23T06:12:49;6.60;99.90
1594;DHT22;790;47.000;16.084;2023-03-23T06:15:17;6.70;99.90
1594;DHT22;790;47.000;16.084;2023-03-23T06:17:45;6.80;99.90
1594;DHT22;790;47.000;16.084;2023-03-23T06:20:12;6.80;99.90
1594;DHT22;790;47.000;16.084;2023-03-23T06:22:42;6.90;99.90
1594;DHT22;790;47.000;16.084;2023-03-23T06:25:11;7.00;99.90
1594;DHT22;790;47.000;16.084;2023-03-23T06:27:40;7.10;99.90
1594;DHT22;790;47.000;16.084;2023-03-23T06:30:08;7.20;99.90
1594;DHT22;790;47.000;16.084;2023-03-23T06:32:37;7.30;99.90
1594;DHT22;790;47.000;16.084;2023-03-23T06:35:05;7.40;99.90
1594;DHT22;790;47.000;16.084;2023-03-23T06:37:42;7.50;99.90
1594;DHT22;790;47.000;16.084;2023-03-23T06:40:12;7.60;99.90
1594;DHT22;790;47.000;16.084;2023-03-23T06:42:39;7.70;99.90
1594;DHT22;790;47.000;16.084;2023-03-23T06:45:13;7.80;99.90
1594;DHT22;790;47.000;16.084;2023-03-23T06:47:58;7.80;99.90
1594;DHT22;790;47.000;16.084;2023-03-23T06:50:26;7.90;99.90
1594;DHT22;790;47.000;16.084;2023-03-23T06:53:02;8.00;99.90
1594;DHT22;790;47.000;16.084;2023-03-23T06:55:31;8.10;99.90
1594;DHT22;790;47.000;16.084;2023-03-23T06:58:03;8.10;99.90
1594;DHT22;790;47.000;16.084;2023-03-23T07:00:32;8.20;99.90
1594;DHT22;790;47.000;16.084;2023-03-23T07:03:01;8.30;99.90
1594;DHT22;790;47.000;16.084;2023-03-23T07:05:29;8.40;99.90
1594;DHT22;790;47.000;16.084;2023-03-23T07:08:13;8.50;99.90
1594;DHT22;790;47.000;16.084;2023-03-23T07:10:43;8.60;99.90
1594;DHT22;790;47.000;16.084;2023-03-23T07:13:16;8.80;99.90
1594;DHT22;790;47.000;16.084;2023-03-23T07:15:48;8.90;99.90
1594;DHT22;790;47.000;16.084;2023-03-23T07:18:19;9.00;99.90
1594;DHT22;790;47.000;16.084;2023-03-23T07:21:08;9.00;99.90
1594;DHT22;790;47.000;16.084;2023-03-23T07:23:54;9.20;99.90
1594;DHT22;790;47.000;16.084;2023-03-23T07:26:53;9.30;99.90
1594;DHT22;790;47.000;16.084;2023-03-23T07:29:22;9.50;99.90
1594;DHT22;790;47.000;16.084;2023-03-23T07:31:59;9.60;99.90
1594;DHT22;790;47.000;16.084;2023-03-23T07:34:35;9.60;99.90
1594;DHT22;790;47.000;16.084;2023-03-23T07:37:42;9.80;99.90
1594;DHT22;790;47.000;16.084;2023-03-23T07:40:15;10.00;99.90
1594;DHT22;790;47.000;16.084;2023-03-23T07:42:51;10.00;99.90
1594;DHT22;790;47.000;16.084;2023-03-23T07:45:22;10.10;99.90
1594;DHT22;790;47.000;16.084;2023-03-23T07:47:50;10.20;99.90
1594;DHT22;790;47.000;16.084;2023-03-23T07:50:19;10.40;99.90
1594;DHT22;790;47.000;16.084;2023-03-23T07:52:56;10.40;99.90
1594;DHT22;790;47.000;16.084;2023-03-23T07:55:27;10.60;99.90
1594;DHT22;790;47.000;16.084;2023-03-23T07:57:56;10.80;99.90
1594;DHT22;790;47.000;16.084;2023-03-23T08:00:23;11.00;99.90
1594;DHT22;790;47.000;16.084;2023-03-23T08:03:11;11.30;99.90
1594;DHT22;790;47.000;16.084;2023-03-23T08:05:53;11.40;99.90
1594;DHT22;790;47.000;16.084;2023-03-23T08:08:24;11.50;99.90
1594;DHT22;790;47.000;16.084;2023-03-23T08:10:55;11.60;99.90
1594;DHT22;790;47.000;16.084;2023-03-23T08:13:22;11.70;99.90
1594;DHT22;790;47.000;16.084;2023-03-23T08:15:50;11.80;99.90
1594;DHT22;790;47.000;16.084;2023-03-23T08:18:18;12.00;99.90
1594;DHT22;790;47.000;16.084;2023-03-23T08:20:46;12.10;99.90
1594;DHT22;790;47.000;16.084;2023-03-23T08:23:14;12.30;99.90
1594;DHT22;790;47.000;16.084;2023-03-23T08:25:42;12.40;99.90
1594;DHT22;790;47.000;16.084;2023-03-23T08:28:11;12.70;99.90
1594;DHT22;790;47.000;16.084;2023-03-23T08:30:41;12.80;99.90
1594;DHT22;790;47.000;16.084;2023-03-23T08:33:08;13.10;99.90
1594;DHT22;790;47.000;16.084;2023-03-23T08:35:37;13.20;99.90
1594;DHT22;790;47.000;16.084;2023-03-23T08:38:05;13.50;99.90
1594;DHT22;790;47.000;16.084;2023-03-23T08:40:32;13.70;99.90
1594;DHT22;790;47.000;16.084;2023-03-23T08:42:59;13.80;99.90
1594;DHT22;790;47.000;16.084;2023-03-23T08:45:27;14.00;99.90
1594;DHT22;790;47.000;16.084;2023-03-23T08:47:55;14.10;99.90
1594;DHT22;790;47.000;16.084;2023-03-23T08:50:25;14.20;99.90
1594;DHT22;790;47.000;16.084;2023-03-23T08:52:55;14.40;99.90
1594;DHT22;790;47.000;16.084;2023-03-23T08:55:23;14.50;99.90
1594;DHT22;790;47.000;16.084;2023-03-23T08:57:52;14.60;99.90
1594;DHT22;790;47.000;16.084;2023-03-23T09:00:20;14.70;99.90
1594;DHT22;790;47.000;16.084;2023-03-23T09:02:52;14.80;99.90
1594;DHT22;790;47.000;16.084;2023-03-23T09:05:23;14.70;99.90
1594;DHT22;790;47.000;16.084;2023-03-23T09:07:52;14.70;99.90
1594;DHT22;790;47.000;16.084;2023-03-23T09:10:26;14.90;99.90
1594;DHT22;790;47.000;16.084;2023-03-23T09:13:02;15.00;99.90
1594;DHT22;790;47.000;16.084;2023-03-23T09:15:42;15.20;99.90
1594;DHT22;790;47.000;16.084;2023-03-23T09:18:17;15.40;99.90
1594;DHT22;790;47.000;16.084;2023-03-23T09:20:48;15.50;99.90
1594;DHT22;790;47.000;16.084;2023-03-23T09:23:22;15.60;99.90
1594;DHT22;790;47.000;16.084;2023-03-23T09:25:54;15.60;99.90
1594;DHT22;790;47.000;16.084;2023-03-23T09:28:25;15.60;99.90
1594;DHT22;790;47.000;16.084;2023-03-23T09:30:57;15.80;99.90
1594;DHT22;790;47.000;16.084;2023-03-23T09:33:28;15.80;99.90
1594;DHT22;790;47.000;16.084;2023-03-23T09:36:09;15.90;99.90
1594;DHT22;790;47.000;16.084;2023-03-23T09:39:00;16.00;99.90
1594;DHT22;790;47.000;16.084;2023-03-23T09:42:19;16.10;99.90
1594;DHT22;790;47.000;16.084;2023-03-23T09:45:02;16.30;99.90
1594;DHT22;790;47.000;16.084;2023-03-23T09:47:43;16.40;99.90
1594;DHT22;790;47.000;16.084;2023-03-23T09:50:21;16.50;99.90
1594;DHT22;790;47.000;16.084;2023-03-23T09:52:58;16.60;99.90
1594;DHT22;790;47.000;16.084;2023-03-23T09:55:28;16.70;99.90
1594;DHT22;790;47.000;16.084;2023-03-23T09:58:14;16.80;99.90
1594;DHT22;790;47.000;16.084;2023-03-23T10:00:55;17.00;99.90
1594;DHT22;790;47.000;16.084;2023-03-23T10:03:39;17.10;99.90
1594;DHT22;790;47.000;16.084;2023-03-23T10:06:12;17.10;99.90
1594;DHT22;790;47.000;16.084;2023-03-23T10:08:44;17.20;99.90
1594;DHT22;790;47.000;16.084;2023-03-23T10:11:18;17.30;99.90
1594;DHT22;790;47.000;16.084;2023-03-23T10:14:07;17.50;99.90
1594;DHT22;790;47.000;16.084;2023-03-23T10:16:54;17.70;99.90
1594;DHT22;790;47.000;16.084;2023-03-23T10:19:29;17.70;99.90
1594;DHT22;790;47.000;16.084;2023-03-23T10:22:04;17.80;99.90
1594;DHT22;790;47.000;16.084;2023-03-23T10:24:35;17.90;99.90
1594;DHT22;790;47.000;16.084;2023-03-23T10:27:16;18.00;99.90
1594;DHT22;790;47.000;16.084;2023-03-23T10:29:50;18.00;99.90
1594;DHT22;790;47.000;16.084;2023-03-23T10:32:40;18.00;99.90
1594;DHT22;790;47.000;16.084;2023-03-23T10:35:24;18.10;99.90
1594;DHT22;790;47.000;16.084;2023-03-23T10:38:05;18.10;99.90
1594;DHT22;790;47.000;16.084;2023-03-23T10:40:54;18.10;99.90
1594;DHT22;790;47.000;16.084;2023-03-23T10:43:28;18.20;99.90
1594;DHT22;790;47.000;16.084;2023-03-23T10:46:04;18.40;99.90
1594;DHT22;790;47.000;16.084;2023-03-23T10:48:48;18.40;99.90
1594;DHT22;790;47.000;16.084;2023-03-23T10:51:28;18.60;99.90
1594;DHT22;790;47.000;16.084;2023-03-23T10:54:26;18.90;99.90
1594;DHT22;790;47.000;16.084;2023-03-23T10:56:54;19.10;99.90
1594;DHT22;790;47.000;16.084;2023-03-23T10:59:28;19.10;99.90
1594;DHT22;790;47.000;16.084;2023-03-23T11:02:18;19.20;99.90
1594;DHT22;790;47.000;16.084;2023-03-23T11:05:06;19.30;99.90
1594;DHT22;790;47.000;16.084;2023-03-23T11:07:53;19.50;99.90
1594;DHT22;790;47.000;16.084;2023-03-23T11:10:35;19.50;99.90
1594;DHT22;790;47.000;16.084;2023-03-23T11:13:03;19.50;99.90
1594;DHT22;790;47.000;16.084;2023-03-23T11:15:39;19.40;99.90
1594;DHT22;790;47.000;16.084;2023-03-23T11:18:10;19.30;99.90
1594;DHT22;790;47.000;16.084;2023-03-23T11:20:42;19.30;99.90
1594;DHT22;790;47.000;16.084;2023-03-23T11:23:19;19.20;99.90
1594;DHT22;790;47.000;16.084;2023-03-23T11:26:12;19.10;99.90
1594;DHT22;790;47.000;16.084;2023-03-23T11:28:55;19.20;99.90
1594;DHT22;790;47.000;16.084;2023-03-23T11:31:27;19.30;99.90
1594;DHT22;790;47.000;16.084;2023-03-23T11:34:01;19.30;99.90
1594;DHT22;790;47.000;16.084;2023-03-23T11:36:41;19.30;99.90
1594;DHT22;790;47.000;16.084;2023-03-23T11:39:24;19.40;99.90
1594;DHT22;790;47.000;16.084;2023-03-23T11:42:00;19.40;99.90
1594;DHT22;790;47.000;16.084;2023-03-23T11:44:39;19.50;99.90
1594;DHT22;790;47.000;16.084;2023-03-23T11:47:22;19.50;99.90
1594;DHT22;790;47.000;16.084;2023-03-23T11:50:00;19.60;99.90
1594;DHT22;790;47.000;16.084;2023-03-23T11:52:59;19.60;99.90
1594;DHT22;790;47.000;16.084;2023-03-23T11:55:34;19.60;99.90
1594;DHT22;790;47.000;16.084;2023-03-23T11:58:11;19.60;99.90
1594;DHT22;790;47.000;16.084;2023-03-23T12:00:50;19.60;99.90
1594;DHT22;790;47.000;16.084;2023-03-23T12:03:43;19.70;99.90
1594;DHT22;790;47.000;16.084;2023-03-23T12:06:45;19.70;99.90
1594;DHT22;790;47.000;16.084;2023-03-23T12:09:42;19.70;99.90
1594;DHT22;790;47.000;16.084;2023-03-23T12:12:35;19.60;99.90
1594;DHT22;790;47.000;16.084;2023-03-23T12:15:21;19.50;99.90
1594;DHT22;790;47.000;16.084;2023-03-23T12:18:12;19.60;99.90
1594;DHT22;790;47.000;16.084;2023-03-23T12:21:00;19.60;99.90
1594;DHT22;790;47.000;16.084;2023-03-23T12:23:46;19.60;99.90
1594;DHT22;790;47.000;16.084;2023-03-23T12:26:26;19.60;99.90
1594;DHT22;790;47.000;16.084;2023-03-23T12:29:41;19.60;99.20
1594;DHT22;790;47.000;16.084;2023-03-23T12:32:31;19.60;99.90
1594;DHT22;790;47.000;16.084;2023-03-23T12:35:17;19.60;99.70
1594;DHT22;790;47.000;16.084;2023-03-23T12:37:58;19.50;99.00
1594;DHT22;790;47.000;16.084;2023-03-23T12:41:05;19.50;98.80
1594;DHT22;790;47.000;16.084;2023-03-23T12:43:51;19.40;99.60
1594;DHT22;790;47.000;16.084;2023-03-23T12:46:51;19.40;99.80
1594;DHT22;790;47.000;16.084;2023-03-23T12:49:30;19.40;99.70
1594;DHT22;790;47.000;16.084;2023-03-23T12:52:04;19.40;99.90
1594;DHT22;790;47.000;16.084;2023-03-23T12:54:40;19.40;99.80
1594;DHT22;790;47.000;16.084;2023-03-23T12:57:17;19.50;98.90
1594;DHT22;790;47.000;16.084;2023-03-23T13:00:06;19.50;99.40
1594;DHT22;790;47.000;16.084;2023-03-23T13:03:04;19.50;99.50
1594;DHT22;790;47.000;16.084;2023-03-23T13:05:41;19.60;99.90
1594;DHT22;790;47.000;16.084;2023-03-23T13:08:18;19.70;99.90
1594;DHT22;790;47.000;16.084;2023-03-23T13:10:57;19.70;99.90
1594;DHT22;790;47.000;16.084;2023-03-23T13:13:39;19.60;99.20
1594;DHT22;790;47.000;16.084;2023-03-23T13:16:14;19.60;99.30
1594;DHT22;790;47.000;16.084;2023-03-23T13:19:16;19.60;99.90
1594;DHT22;790;47.000;16.084;2023-03-23T13:22:04;19.80;99.90
1594;DHT22;790;47.000;16.084;2023-03-23T13:25:02;19.90;99.90
1594;DHT22;790;47.000;16.084;2023-03-23T13:27:56;19.90;99.90
1594;DHT22;790;47.000;16.084;2023-03-23T13:30:31;19.90;99.90
1594;DHT22;790;47.000;16.084;2023-03-23T13:33:03;19.90;99.20
1594;DHT22;790;47.000;16.084;2023-03-23T13:35:49;20.00;99.90
1594;DHT22;790;47.000;16.084;2023-03-23T13:38:27;20.20;99.90
1594;DHT22;790;47.000;16.084;2023-03-23T13:41:06;20.10;99.90
1594;DHT22;790;47.000;16.084;2023-03-23T13:43:36;20.10;99.70
1594;DHT22;790;47.000;16.084;2023-03-23T13:46:28;20.00;98.50
1594;DHT22;790;47.000;16.084;2023-03-23T13:49:16;20.10;98.90
1594;DHT22;790;47.000;16.084;2023-03-23T13:52:13;20.00;99.10
1594;DHT22;790;47.000;16.084;2023-03-23T13:55:29;20.00;98.90
1594;DHT22;790;47.000;16.084;2023-03-23T13:57:57;19.90;99.50
1594;DHT22;790;47.000;16.084;2023-03-23T14:00:44;19.90;99.40
1594;DHT22;790;47.000;16.084;2023-03-23T14:03:25;19.80;99.30
1594;DHT22;790;47.000;16.084;2023-03-23T14:06:13;19.70;99.80
1594;DHT22;790;47.000;16.084;2023-03-23T14:08:47;19.70;99.10
1594;DHT22;790;47.000;16.084;2023-03-23T14:11:55;19.60;99.90
1594;DHT22;790;47.000;16.084;2023-03-23T14:14:27;19.60;99.90
1594;DHT22;790;47.000;16.084;2023-03-23T14:17:06;19.60;99.90
1594;DHT22;790;47.000;16.084;2023-03-23T14:19:50;19.70;99.90
1594;DHT22;790;47.000;16.084;2023-03-23T14:22:35;19.70;99.90
1594;DHT22;790;47.000;16.084;2023-03-23T14:25:14;19.80;99.90
1594;DHT22;790;47.000;16.084;2023-03-23T14:27:48;19.80;99.90
1594;DHT22;790;47.000;16.084;2023-03-23T14:30:21;19.90;99.90
1594;DHT22;790;47.000;16.084;2023-03-23T14:33:06;20.00;99.90
1594;DHT22;790;47.000;16.084;2023-03-23T14:35:42;20.00;99.90
1594;DHT22;790;47.000;16.084;2023-03-23T14:38:14;20.10;99.90
1594;DHT22;790;47.000;16.084;2023-03-23T14:40:46;20.20;99.90
1594;DHT22;790;47.000;16.084;2023-03-23T14:43:19;20.30;99.90
1594;DHT22;790;47.000;16.084;2023-03-23T14:45:52;20.30;99.60
1594;DHT22;790;47.000;16.084;2023-03-23T14:48:21;20.30;99.70
1594;DHT22;790;47.000;16.084;2023-03-23T14:50:57;20.40;98.80
1594;DHT22;790;47.000;16.084;2023-03-23T14:53:29;20.50;99.30
1594;DHT22;790;47.000;16.084;2023-03-23T14:56:01;20.40;98.70
1594;DHT22;790;47.000;16.084;2023-03-23T14:58:32;20.40;98.70
1594;DHT22;790;47.000;16.084;2023-03-23T15:01:05;20.50;99.20
1594;DHT22;790;47.000;16.084;2023-03-23T15:03:38;20.50;99.10
1594;DHT22;790;47.000;16.084;2023-03-23T15:06:11;20.50;99.70
1594;DHT22;790;47.000;16.084;2023-03-23T15:08:39;20.40;99.40
1594;DHT22;790;47.000;16.084;2023-03-23T15:11:12;20.40;99.70
1594;DHT22;790;47.000;16.084;2023-03-23T15:13:48;20.40;99.90
1594;DHT22;790;47.000;16.084;2023-03-23T15:16:22;20.40;99.30
1594;DHT22;790;47.000;16.084;2023-03-23T15:18:53;20.50;99.30
1594;DHT22;790;47.000;16.084;2023-03-23T15:21:27;20.40;99.90
1594;DHT22;790;47.000;16.084;2023-03-23T15:23:55;20.40;99.90
1594;DHT22;790;47.000;16.084;2023-03-23T15:26:34;20.40;99.90
1594;DHT22;790;47.000;16.084;2023-03-23T15:29:18;20.30;99.90
1594;DHT22;790;47.000;16.084;2023-03-23T15:31:57;20.30;99.90
1594;DHT22;790;47.000;16.084;2023-03-23T15:34:30;20.30;99.90
1594;DHT22;790;47.000;16.084;2023-03-23T15:37:00;20.30;99.90
1594;DHT22;790;47.000;16.084;2023-03-23T15:39:29;20.20;99.90
1594;DHT22;790;47.000;16.084;2023-03-23T15:42:24;20.10;99.70
1594;DHT22;790;47.000;16.084;2023-03-23T15:45:24;20.10;99.50
1594;DHT22;790;47.000;16.084;2023-03-23T15:47:57;20.00;99.90
1594;DHT22;790;47.000;16.084;2023-03-23T15:50:34;19.90;99.90
1594;DHT22;790;47.000;16.084;2023-03-23T15:53:22;19.90;99.90
1594;DHT22;790;47.000;16.084;2023-03-23T15:55:59;19.90;99.90
1594;DHT22;790;47.000;16.084;2023-03-23T15:58:44;19.80;99.90
1594;DHT22;790;47.000;16.084;2023-03-23T16:01:24;19.80;99.90
1594;DHT22;790;47.000;16.084;2023-03-23T16:03:58;19.70;99.90
1594;DHT22;790;47.000;16.084;2023-03-23T16:09:32;19.50;99.90
1594;DHT22;790;47.000;16.084;2023-03-23T16:11:59;19.30;99.90
1594;DHT22;790;47.000;16.084;2023-03-23T16:14:36;19.20;99.90
1594;DHT22;790;47.000;16.084;2023-03-23T16:17:15;19.10;99.90
1594;DHT22;790;47.000;16.084;2023-03-23T16:20:12;19.00;99.90
1594;DHT22;790;47.000;16.084;2023-03-23T16:22:48;18.90;99.90
1594;DHT22;790;47.000;16.084;2023-03-23T16:25:17;18.80;99.90
1594;DHT22;790;47.000;16.084;2023-03-23T16:27:58;18.70;99.90
1594;DHT22;790;47.000;16.084;2023-03-23T16:30:31;18.50;99.90
1594;DHT22;790;47.000;16.084;2023-03-23T16:33:15;18.40;99.90
1594;DHT22;790;47.000;16.084;2023-03-23T16:36:00;18.30;99.90
1594;DHT22;790;47.000;16.084;2023-03-23T16:38:38;18.10;99.90
1594;DHT22;790;47.000;16.084;2023-03-23T16:41:10;18.00;99.90
1594;DHT22;790;47.000;16.084;2023-03-23T16:43:51;17.90;99.90
1594;DHT22;790;47.000;16.084;2023-03-23T16:46:28;17.70;99.90
1594;DHT22;790;47.000;16.084;2023-03-23T16:48:59;17.60;99.90
1594;DHT22;790;47.000;16.084;2023-03-23T16:51:43;17.60;99.90
1594;DHT22;790;47.000;16.084;2023-03-23T16:54:15;17.50;99.90
1594;DHT22;790;47.000;16.084;2023-03-23T16:56:43;17.30;99.90
1594;DHT22;790;47.000;16.084;2023-03-23T16:59:26;17.20;99.90
1594;DHT22;790;47.000;16.084;2023-03-23T17:02:04;17.10;99.90
1594;DHT22;790;47.000;16.084;2023-03-23T17:08:01;16.90;99.90
1594;DHT22;790;47.000;16.084;2023-03-23T17:10:30;16.70;99.90
1594;DHT22;790;47.000;16.084;2023-03-23T17:13:03;16.60;99.90
1594;DHT22;790;47.000;16.084;2023-03-23T17:15:50;16.50;99.90
1594;DHT22;790;47.000;16.084;2023-03-23T17:18:20;16.40;99.90
1594;DHT22;790;47.000;16.084;2023-03-23T17:20:56;16.30;99.90
1594;DHT22;790;47.000;16.084;2023-03-23T17:24:03;16.20;99.90
1594;DHT22;790;47.000;16.084;2023-03-23T17:26:51;16.10;99.90